Time;durP1;ratioP1;P1;durP2;ratioP2;P2;SDS_P1;SDS_P2;PMS_P1;PMS_P2;Temp;Humidity;BMP_temperature;BMP_pressure;BME280_temperature;BME280_humidity;BME280_pressure;Samples;Min_cycle;Max_cycle;Signal;HPM_P1;HPM_P2
2022/06/18 00:01:34;;;;;;;19.75;9.90;;;;;;;13.66;65.23;99494.86;1447081;80;21020;-70
2022/06/18 00:03:35;;;;;;;13.80;10.38;;;;;;;13.65;65.21;99498.44;1433735;81;80804;-70
2022/06/18 00:05:36;;;;;;;;;;;;;;;13.64;65.20;99490.13;1423578;82;21472;-70
2022/06/18 00:07:39;;;;;;;;;;;;;;;13.62;65.44;99490.66;1446937;80;20115;-70
2022/06/18 00:09:43;;;;;;;16.15;9.33;;;;;;;13.59;65.55;99493.48;1422180;81;67158;-70
2022/06/18 00:14:03;;;;;;;16.15;10.80;;;;;;;13.54;65.36;99492.85;1422465;82;21040;-70
2022/06/18 00:16:05;;;;;;;17.07;9.40;;;;;;;13.50;65.35;99486.88;1445046;80;80978;-70
2022/06/18 00:18:12;;;;;;;24.37;9.28;;;;;;;13.49;65.36;99493.58;1421933;82;21007;-71
2022/06/18 00:20:14;;;;;;;16.57;9.73;;;;;;;13.47;65.37;99479.55;1420862;82;21041;-70
2022/06/18 00:22:18;;;;;;;19.50;9.85;;;;;;;13.42;65.36;99483.77;1435667;82;81625;-70
2022/06/18 00:24:20;;;;;;;14.00;9.18;;;;;;;13.40;65.37;99487.83;1434581;82;21043;-70
2022/06/18 00:26:21;;;;;;;14.05;8.68;;;;;;;13.39;65.46;99483.46;1435387;81;21038;-70
2022/06/18 00:28:29;;;;;;;13.08;9.33;;;;;;;13.36;65.45;99480.98;1434006;82;80775;-71
2022/06/18 00:30:30;;;;;;;20.45;9.58;;;;;;;13.34;65.48;99484.13;1420238;82;21036;-71
2022/06/18 00:32:31;;;;;;;15.03;9.13;;;;;;;13.30;65.52;99475.95;1422298;82;21080;-70
2022/06/18 00:34:33;;;;;;;16.95;8.70;;;;;;;13.28;65.55;99493.23;1444562;80;81707;-70
2022/06/18 00:36:37;;;;;;;21.35;9.40;;;;;;;13.22;65.63;99488.27;1435009;82;20999;-70
2022/06/18 00:38:42;;;;;;;11.80;8.58;;;;;;;13.18;65.65;99488.48;1421220;82;21011;-71
2022/06/18 00:40:43;;;;;;;12.45;8.08;;;;;;;13.12;65.71;99484.36;1443272;80;80742;-70
2022/06/18 00:42:45;;;;;;;16.85;7.90;;;;;;;13.06;65.73;99484.69;1421918;82;21036;-70
2022/06/18 00:44:53;;;;;;;11.93;7.70;;;;;;;13.00;65.75;99484.53;1446302;80;20931;-70
2022/06/18 00:47:17;;;;;;;14.05;7.00;;;;;;;12.95;65.82;99482.58;1431891;81;80703;-70
2022/06/18 00:49:43;;;;;;;18.50;8.75;;;;;;;12.89;65.91;99481.53;1473358;79;22465;-70
2022/06/18 00:51:53;;;;;;;14.23;8.13;;;;;;;12.85;66.05;99487.91;1475343;79;82080;-70
2022/06/18 00:53:58;;;;;;;16.30;8.60;;;;;;;12.81;66.13;99482.37;1476109;79;21277;-70
2022/06/18 00:56:05;;;;;;;17.23;8.25;;;;;;;12.78;66.23;99484.27;1475076;79;21042;-70
2022/06/18 00:58:16;;;;;;;16.02;9.60;;;;;;;12.76;66.27;99487.91;1475832;79;81971;-70
2022/06/18 01:00:37;;;;;;;10.78;8.90;;;;;;;12.74;66.30;99484.02;1477230;79;21133;-71
2022/06/18 01:02:40;;;;;;;;;;;;;;;12.71;66.39;99485.50;1480640;79;21007;-70
2022/06/18 01:04:41;;;;;;;15.03;7.92;;;;;;;12.67;66.66;99486.58;1475178;79;67053;-70
2022/06/18 01:06:42;;;;;;;14.75;7.90;;;;;;;12.65;66.55;99482.30;1478165;79;21115;-70
2022/06/18 01:08:45;;;;;;;14.68;8.68;;;;;;;12.64;66.56;99484.09;1476902;79;20960;-70
2022/06/18 01:10:51;;;;;;;16.05;8.98;;;;;;;12.62;66.59;99489.91;1456406;80;81794;-71
2022/06/18 01:12:53;;;;;;;15.58;9.03;;;;;;;12.58;66.62;99492.30;1477454;79;20993;-69
2022/06/18 01:15:00;;;;;;;16.07;8.85;;;;;;;12.55;66.62;99485.38;1475248;79;80944;-70
2022/06/18 01:17:03;;;;;;;24.63;9.03;;;;;;;12.53;66.68;99489.89;1476962;79;21041;-70
2022/06/18 01:19:07;;;;;;;24.18;8.73;;;;;;;12.50;66.73;99490.50;1477838;79;21667;-69
2022/06/18 01:21:17;;;;;;;19.75;8.85;;;;;;;12.46;66.82;99480.55;1476052;79;81776;-70
2022/06/18 01:23:37;;;;;;;17.90;9.03;;;;;;;12.45;66.89;99481.47;1477196;79;21019;-70
2022/06/18 01:25:38;;;;;;;16.15;9.35;;;;;;;12.43;66.94;99476.70;1484019;78;21101;-70
2022/06/18 01:27:39;;;;;;;;;;;;;;;12.41;66.97;99481.23;1479945;79;80783;-70
2022/06/18 01:29:40;;;;;;;14.38;8.65;;;;;;;12.41;67.21;99481.23;1476556;79;20500;-70
2022/06/18 01:31:42;;;;;;;19.45;8.33;;;;;;;12.39;67.16;99477.34;1477907;80;21014;-70
2022/06/18 01:33:44;;;;;;;18.02;8.65;;;;;;;12.38;67.12;99474.30;1476601;79;81701;-70
2022/06/18 01:35:46;;;;;;;;;;;;;;;12.31;67.12;99471.55;1482099;79;21015;-71
2022/06/18 01:37:48;;;;;;;12.18;8.58;;;;;;;12.33;67.37;99472.33;1462667;79;20132;-70
2022/06/18 01:39:49;;;;;;;15.98;8.63;;;;;;;12.29;67.23;99464.62;1462136;79;82160;-70
2022/06/18 01:42:00;;;;;;;17.65;9.08;;;;;;;12.28;67.28;99464.23;1462747;79;21521;-70
2022/06/18 01:44:04;;;;;;;16.57;9.48;;;;;;;12.25;67.32;99463.90;1462449;79;21027;-70
2022/06/18 01:46:06;;;;;;;17.37;8.40;;;;;;;12.25;67.40;99462.58;1459591;79;81479;-70
2022/06/18 01:48:08;;;;;;;;;;;;;;;12.26;67.42;99466.94;1465895;81;21646;-70
2022/06/18 01:50:25;;;;;;;15.08;8.70;;;;;;;12.23;67.59;99460.02;1462467;80;20156;-70
2022/06/18 01:52:36;;;;;;;13.93;8.48;;;;;;;12.21;67.53;99464.53;1461265;79;81374;-70
2022/06/18 01:54:48;;;;;;;17.02;8.53;;;;;;;12.21;67.54;99468.50;1462979;79;21008;-71
2022/06/18 01:56:58;;;;;;;17.50;9.03;;;;;;;12.20;67.57;99456.67;1461258;80;20983;-70
2022/06/18 01:59:03;;;;;;;19.87;8.30;;;;;;;12.16;67.61;99453.31;1463194;79;21488;-71
2022/06/18 02:01:08;;;;;;;18.23;7.92;;;;;;;12.14;67.63;99451.66;1475307;79;21584;-70
2022/06/18 02:03:09;;;;;;;14.33;8.65;;;;;;;12.12;67.67;99449.58;1477928;78;81435;-70
2022/06/18 02:05:11;;;;;;;25.97;9.30;;;;;;;12.09;67.67;99453.21;1478702;79;21058;-70
2022/06/18 02:07:15;;;;;;;24.37;7.67;;;;;;;12.06;67.70;99458.17;1479969;79;21010;-70
2022/06/18 02:09:32;;;;;;;13.20;8.88;;;;;;;12.04;67.72;99455.20;1478398;79;80944;-70
2022/06/18 02:11:34;;;;;;;21.70;9.13;;;;;;;12.01;67.74;99453.56;1474955;79;20983;-70
2022/06/18 02:13:45;;;;;;;13.65;8.73;;;;;;;11.98;67.82;99448.42;1478183;79;21045;-70
2022/06/18 02:15:46;;;;;;;19.37;8.85;;;;;;;11.98;67.82;99450.22;1445971;80;81883;-70
2022/06/18 02:17:48;;;;;;;14.80;8.55;;;;;;;11.95;67.85;99447.25;1439665;81;20986;-70
2022/06/18 02:19:53;;;;;;;16.82;9.00;;;;;;;11.93;67.87;99442.45;1431251;81;22428;-70
2022/06/18 02:21:57;;;;;;;17.67;9.18;;;;;;;11.93;67.92;99449.06;1437301;80;80984;-70
2022/06/18 02:23:58;;;;;;;34.90;9.98;;;;;;;11.92;67.96;99449.98;1479698;79;21547;-70
2022/06/18 02:25:59;;;;;;;11.80;9.10;;;;;;;11.90;68.03;99448.73;1479180;79;21009;-69
2022/06/18 02:28:24;;;;;;;18.73;8.28;;;;;;;11.88;68.02;99449.72;1477337;79;81521;-70
2022/06/18 02:30:29;;;;;;;15.55;8.13;;;;;;;11.88;68.13;99448.41;1478284;79;21112;-70
2022/06/18 02:32:40;;;;;;;12.98;8.50;;;;;;;11.88;68.21;99444.44;1478210;79;20972;-70
2022/06/18 02:34:41;;;;;;;15.13;9.30;;;;;;;11.91;68.20;99444.33;1460587;80;81358;-71
2022/06/18 02:36:42;;;;;;;9.65;8.45;;;;;;;11.91;68.22;99450.93;1480589;79;21479;-70
2022/06/18 02:38:45;;;;;;;17.77;9.65;;;;;;;11.88;68.16;99451.05;1478434;79;21031;-70
2022/06/18 02:40:46;;;;;;;28.25;9.03;;;;;;;11.86;68.15;99452.92;1477732;79;81229;-70
2022/06/18 02:42:49;;;;;;;25.30;9.10;;;;;;;11.82;68.22;99448.70;1479149;79;21034;-71
2022/06/18 02:44:51;;;;;;;16.87;9.58;;;;;;;11.80;68.29;99449.25;1478843;79;20991;-70
2022/06/18 02:46:52;;;;;;;19.92;8.50;;;;;;;11.79;68.32;99448.84;1477501;79;80521;-70
2022/06/18 02:48:53;;;;;;;11.68;8.45;;;;;;;11.79;68.32;99448.84;1478504;79;20940;-70
2022/06/18 02:50:55;;;;;;;;;;;;;;;11.75;68.38;99445.48;1482770;79;80759;-70
2022/06/18 02:53:04;;;;;;;16.82;8.98;;;;;;;11.73;68.56;99446.88;1450640;80;20122;-70
2022/06/18 02:55:19;;;;;;;12.68;9.03;;;;;;;11.72;68.50;99447.79;1455859;80;20988;-70
2022/06/18 02:57:27;;;;;;;14.18;9.08;;;;;;;11.74;68.56;99447.27;1457864;80;80756;-70
2022/06/18 02:59:28;;;;;;;17.48;9.13;;;;;;;11.71;68.59;99444.78;1478854;79;21015;-70
2022/06/18 03:01:29;;;;;;;15.50;9.33;;;;;;;11.70;68.65;99444.37;1478534;79;21047;-70
2022/06/18 03:03:32;;;;;;;;;;;;;;;11.70;68.68;99450.98;1480571;79;81886;-70
2022/06/18 03:05:33;;;;;;;16.00;8.63;;;;;;;11.71;68.87;99451.38;1478300;79;20139;-71
2022/06/18 03:07:34;;;;;;;20.35;9.53;;;;;;;11.68;68.77;99448.85;1479169;79;21528;-70
2022/06/18 03:12:06;;;;;;;20.12;9.35;;;;;;;11.70;68.74;99452.30;1479020;79;81617;-70
2022/06/18 03:13:59;;;;;;;19.87;9.30;;;;;;;11.72;68.84;99451.75;1414036;83;21034;-69
2022/06/18 03:16:01;;;;;;;20.32;9.53;;;;;;;11.72;68.87;99449.11;1413796;82;81597;-70
2022/06/18 03:18:02;;;;;;;;;;;;;;;11.72;68.90;99447.79;1392612;85;21038;-70
2022/06/18 03:20:07;;;;;;;13.45;8.68;;;;;;;11.74;69.10;99450.36;1387765;84;20129;-70
2022/06/18 03:22:16;;;;;;;16.25;9.40;;;;;;;11.75;69.01;99448.99;1386919;84;80898;-70
2022/06/18 03:24:17;;;;;;;14.50;9.63;;;;;;;11.78;69.01;99452.41;1408709;83;21020;-70
2022/06/18 03:26:18;;;;;;;;;;;;;;;11.78;69.02;99449.30;1390905;84;21067;-70
2022/06/18 03:28:21;;;;;;;14.90;9.55;;;;;;;11.80;69.18;99450.09;1381773;84;68039;-70
2022/06/18 03:30:22;;;;;;;26.93;9.28;;;;;;;11.82;69.13;99440.78;1407662;83;21395;-69
2022/06/18 03:32:23;;;;;;;11.08;8.63;;;;;;;11.85;69.10;99444.59;1387084;84;21167;-70
2022/06/18 03:34:24;;;;;;;;;;;;;;;11.89;69.12;99446.16;1390054;84;81641;-71
2022/06/18 03:36:26;;;;;;;17.12;9.73;;;;;;;11.92;69.30;99448.66;1389935;84;20132;-70
2022/06/18 03:38:27;;;;;;;16.67;9.15;;;;;;;11.95;69.17;99449.89;1387866;84;21106;-70
2022/06/18 03:40:29;;;;;;;15.32;10.00;;;;;;;11.99;69.22;99449.27;1387674;83;80934;-70
2022/06/18 03:42:30;;;;;;;14.20;9.58;;;;;;;12.01;69.18;99448.27;1388633;84;21475;-70
2022/06/18 03:44:31;;;;;;;14.80;9.75;;;;;;;12.05;69.21;99441.92;1392093;83;21085;-70
2022/06/18 03:46:38;;;;;;;21.57;10.60;;;;;;;12.08;69.21;99444.41;1432035;81;81702;-70
2022/06/18 03:48:49;;;;;;;18.15;10.55;;;;;;;12.13;69.22;99445.53;1456173;80;20950;-70
2022/06/18 03:50:50;;;;;;;24.92;10.10;;;;;;;12.18;69.28;99442.66;1431469;81;21036;-70
2022/06/18 03:52:51;;;;;;;;;;;;;;;12.25;69.33;99440.11;1458272;80;80807;-71
2022/06/18 03:54:52;;;;;;;23.85;9.65;;;;;;;12.32;69.54;99437.56;1457097;80;20161;-70
2022/06/18 03:56:53;;;;;;;;;;;;;;;12.36;69.39;99437.80;1459651;80;21065;-70
2022/06/18 03:58:54;;;;;;;25.30;10.60;;;;;;;12.43;69.61;99436.61;1457101;80;66725;-70
2022/06/18 04:00:56;;;;;;;16.02;9.90;;;;;;;12.50;69.48;99431.00;1458265;80;21536;-70
2022/06/18 04:02:57;;;;;;;14.70;10.25;;;;;;;12.58;69.45;99438.09;1450588;80;81840;-71
2022/06/18 04:04:59;;;;;;;19.37;9.98;;;;;;;12.65;69.40;99440.82;1432144;81;21046;-71
2022/06/18 04:07:02;;;;;;;19.50;10.18;;;;;;;12.67;69.41;99433.69;1454720;80;21081;-70
2022/06/18 04:09:03;;;;;;;17.55;11.00;;;;;;;12.78;69.42;99439.30;1459420;80;81312;-71
2022/06/18 04:11:04;;;;;;;15.28;11.68;;;;;;;12.84;69.39;99431.52;1459993;80;21046;-71
2022/06/18 04:13:05;;;;;;;16.82;11.50;;;;;;;12.91;69.37;99436.03;1459818;80;21000;-71
2022/06/18 04:15:07;;;;;;;14.78;11.35;;;;;;;12.96;69.34;99440.64;1431922;81;81914;-70
2022/06/18 04:17:13;;;;;;;23.50;11.88;;;;;;;13.02;69.39;99437.66;1433153;81;21387;-70
2022/06/18 04:19:14;;;;;;;14.00;11.15;;;;;;;13.08;69.31;99438.69;1441126;81;20985;-71
2022/06/18 04:21:15;;;;;;;;;;;;;;;13.16;69.34;99441.41;1480698;80;81105;-71
2022/06/18 04:23:16;;;;;;;30.35;13.20;;;;;;;13.20;69.51;99440.31;1479614;79;20096;-71
2022/06/18 04:25:17;;;;;;;;;;;;;;;13.26;69.39;99433.36;1482362;79;20987;-71
2022/06/18 04:27:18;;;;;;;20.92;12.70;;;;;;;13.32;69.47;99442.33;1479081;79;67965;-71
2022/06/18 04:29:19;;;;;;;29.12;13.32;;;;;;;13.40;69.44;99440.16;1478634;79;20916;-71
2022/06/18 04:31:20;;;;;;;;;;;;;;;13.48;69.38;99433.12;1481782;79;21060;-71
2022/06/18 04:33:22;;;;;;;19.23;12.65;;;;;;;13.56;69.56;99439.35;1479284;78;67830;-71
2022/06/18 04:35:23;;;;;;;18.85;11.15;;;;;;;13.63;69.39;99438.08;1480301;79;21062;-71
2022/06/18 04:37:24;;;;;;;19.62;12.33;;;;;;;13.69;69.31;99444.36;1478771;79;21660;-70
2022/06/18 04:39:26;;;;;;;20.55;12.47;;;;;;;13.78;69.34;99445.20;1456712;80;82046;-71
2022/06/18 04:41:27;;;;;;;19.23;11.40;;;;;;;13.87;69.26;99439.02;1480622;79;21075;-71
2022/06/18 04:43:28;;;;;;;;;;;;;;;13.98;69.21;99446.39;1481076;79;21021;-70
2022/06/18 04:45:29;;;;;;;20.88;11.33;;;;;;;14.04;69.31;99446.91;1477945;79;67189;-70
2022/06/18 04:47:30;;;;;;;18.37;10.93;;;;;;;14.11;69.14;99445.63;1478545;79;21039;-70
2022/06/18 04:49:32;;;;;;;15.10;10.00;;;;;;;14.19;69.09;99445.21;1478345;79;21017;-71
2022/06/18 04:51:33;;;;;;;22.93;10.30;;;;;;;14.29;68.99;99445.55;1477289;79;81763;-70
2022/06/18 04:53:34;;;;;;;;;;;;;;;14.36;68.92;99445.59;1483209;79;21018;-70
2022/06/18 04:55:35;;;;;;;14.23;9.85;;;;;;;14.45;68.92;99440.22;1479003;79;20166;-71
2022/06/18 04:57:36;;;;;;;13.98;8.93;;;;;;;14.53;68.77;99443.30;1476128;79;81596;-71
2022/06/18 04:59:38;;;;;;;;;;;;;;;14.61;68.69;99437.56;1482450;79;21102;-71
2022/06/18 05:01:39;;;;;;;25.37;9.38;;;;;;;14.71;68.69;99440.56;1479482;79;20222;-71
2022/06/18 05:03:40;;;;;;;;;;;;;;;14.79;68.56;99437.84;1481395;79;81707;-70
2022/06/18 05:05:42;;;;;;;17.27;9.15;;;;;;;14.90;68.66;99439.03;1478831;79;20129;-70
2022/06/18 05:07:43;;;;;;;19.07;8.68;;;;;;;14.96;68.46;99441.31;1477648;79;22153;-70
2022/06/18 05:09:44;;;;;;;;;;;;;;;15.04;68.33;99434.23;1480465;79;81851;-71
2022/06/18 05:11:46;;;;;;;12.85;8.23;;;;;;;15.10;68.32;99432.04;1479054;79;20143;-70
2022/06/18 05:13:47;;;;;;;16.25;7.50;;;;;;;15.26;68.25;99436.46;1479349;79;21018;-71
2022/06/18 05:15:48;;;;;;;;;;;;;;;15.26;68.25;99436.46;1480613;78;81880;-71
2022/06/18 05:17:50;;;;;;;16.00;8.55;;;;;;;15.32;68.12;99441.39;1458397;80;20954;-71
2022/06/18 05:19:52;;;;;;;10.90;7.42;;;;;;;15.37;67.97;99437.98;1479625;79;21626;-71
2022/06/18 05:21:53;;;;;;;18.20;8.15;;;;;;;15.42;67.72;99431.05;1478771;78;82104;-71
2022/06/18 05:23:53;;;;;;;;;;;;;;;15.55;67.83;99443.10;1481765;79;21047;-71
2022/06/18 05:26:00;;;;;;;14.38;7.30;;;;;;;15.61;67.78;99439.60;1478940;79;20282;-71
2022/06/18 05:28:01;;;;;;;9.40;6.45;;;;;;;15.69;67.63;99444.45;1455308;80;81470;-71
2022/06/18 05:30:04;;;;;;;10.18;8.40;;;;;;;15.81;67.53;99439.74;1456842;80;21099;-70
2022/06/18 05:32:05;;;;;;;11.35;7.12;;;;;;;15.81;67.53;99439.74;1430100;81;21068;-71
2022/06/18 05:34:07;;;;;;;12.13;7.05;;;;;;;15.93;67.29;99446.08;1452475;80;81602;-71
2022/06/18 05:36:11;;;;;;;13.53;7.30;;;;;;;16.02;67.22;99442.45;1452362;80;21045;-70
2022/06/18 05:38:18;;;;;;;14.68;7.12;;;;;;;16.08;67.10;99442.92;1431895;81;21024;-71
2022/06/18 05:40:20;;;;;;;12.95;6.60;;;;;;;16.10;66.98;99441.04;1456031;80;80754;-71
2022/06/18 05:42:21;;;;;;;13.25;7.40;;;;;;;16.26;66.81;99444.05;1459364;80;21005;-71
2022/06/18 05:44:22;;;;;;;;;;;;;;;16.32;66.71;99439.64;1433542;81;21542;-71
2022/06/18 05:46:23;;;;;;;14.93;6.80;;;;;;;16.42;66.74;99438.11;1456317;80;67243;-71
2022/06/18 05:48:24;;;;;;;12.30;7.47;;;;;;;16.50;66.57;99445.58;1453636;80;21017;-71
2022/06/18 05:50:25;;;;;;;;;;;;;;;16.56;66.53;99439.87;1454228;81;21017;-72
2022/06/18 05:52:29;;;;;;;9.20;6.37;;;;;;;16.63;66.50;99438.50;1451332;80;67905;-71
2022/06/18 05:54:30;;;;;;;10.88;6.62;;;;;;;16.72;66.45;99437.03;1481694;79;21114;-71
2022/06/18 05:56:31;;;;;;;;;;;;;;;16.82;66.40;99439.93;1481475;79;20979;-71
2022/06/18 05:58:32;;;;;;;10.00;5.67;;;;;;;16.89;66.37;99442.62;1478825;78;67195;-70
2022/06/18 06:00:33;;;;;;;17.62;6.25;;;;;;;16.94;66.31;99440.96;1478714;79;22269;-71
2022/06/18 06:02:34;;;;;;;22.17;8.25;;;;;;;17.00;66.19;99440.53;1453267;80;21009;-72
2022/06/18 06:04:36;;;;;;;9.53;7.35;;;;;;;17.06;66.19;99440.59;1472303;79;80760;-72
2022/06/18 06:06:38;;;;;;;16.17;6.50;;;;;;;17.11;66.26;99432.70;1473685;79;21537;-70
2022/06/18 06:08:38;;;;;;;13.35;6.85;;;;;;;17.19;66.25;99438.33;1471180;79;21563;-71
2022/06/18 06:12:59;;;;;;;10.63;6.03;;;;;;;17.32;66.13;99428.16;1424324;82;21032;-71
2022/06/18 06:15:01;;;;;;;16.67;5.92;;;;;;;17.40;66.07;99431.15;1451274;80;81876;-70
2022/06/18 06:17:02;;;;;;;7.42;5.90;;;;;;;17.47;65.92;99432.45;1455131;80;21491;-71
2022/06/18 06:19:04;;;;;;;8.20;5.53;;;;;;;17.50;65.80;99426.91;1452529;81;21023;-71
2022/06/18 06:21:05;;;;;;;8.98;6.00;;;;;;;17.57;65.72;99431.79;1471710;79;81571;-71
2022/06/18 06:23:07;;;;;;;10.03;5.75;;;;;;;17.63;65.68;99433.55;1474183;79;21479;-71
2022/06/18 06:25:09;;;;;;;11.35;5.50;;;;;;;17.71;65.58;99427.69;1473394;79;21218;-71
2022/06/18 06:27:10;;;;;;;8.00;5.03;;;;;;;17.76;65.50;99428.69;1471803;79;80929;-71
2022/06/18 06:29:11;;;;;;;7.55;5.25;;;;;;;17.85;65.48;99422.71;1472727;79;21573;-71
2022/06/18 06:31:13;;;;;;;11.55;5.45;;;;;;;17.91;65.36;99422.75;1473063;79;21339;-71
2022/06/18 06:33:14;;;;;;;7.97;5.22;;;;;;;17.94;65.27;99420.73;1468812;79;81155;-71
2022/06/18 06:35:15;;;;;;;9.63;5.45;;;;;;;18.03;65.24;99419.23;1473913;79;21008;-71
2022/06/18 06:37:17;;;;;;;8.40;4.72;;;;;;;18.12;65.18;99420.38;1471405;79;21008;-70
2022/06/18 06:39:18;;;;;;;9.05;4.80;;;;;;;18.19;65.06;99419.83;1471677;79;81308;-71
2022/06/18 06:41:23;;;;;;;8.75;4.92;;;;;;;18.24;64.82;99411.48;1472171;79;21042;-71
2022/06/18 06:43:24;;;;;;;11.57;5.25;;;;;;;18.32;64.79;99414.44;1470353;79;20976;-71
2022/06/18 06:45:28;;;;;;;7.10;5.42;;;;;;;18.34;64.64;99415.66;1452322;80;80756;-70
2022/06/18 06:47:29;;;;;;;5.37;4.87;;;;;;;18.35;64.77;99402.69;1473505;79;21149;-71
2022/06/18 06:49:30;;;;;;;10.80;4.90;;;;;;;18.45;64.76;99407.70;1471626;79;21003;-71
2022/06/18 06:51:34;;;;;;;5.67;4.60;;;;;;;18.52;64.61;99404.10;1471433;79;80898;-71
2022/06/18 06:53:35;;;;;;;9.73;4.67;;;;;;;18.57;64.46;99405.08;1471391;79;21061;-71
2022/06/18 06:57:58;;;;;;;6.40;3.95;;;;;;;18.74;64.42;99407.84;1472305;79;81846;-71
2022/06/18 06:59:59;;;;;;;4.67;4.00;;;;;;;18.87;64.19;99408.59;1474176;79;21065;-72
2022/06/18 07:02:02;;;;;;;7.75;4.08;;;;;;;18.98;64.04;99410.49;1472948;79;20993;-71
2022/06/18 07:04:05;;;;;;;7.25;4.65;;;;;;;19.07;63.85;99405.80;1471924;79;82070;-71
2022/06/18 07:06:06;;;;;;;12.45;4.03;;;;;;;19.13;63.88;99410.65;1450527;80;21005;-72
2022/06/18 07:08:08;;;;;;;10.38;4.10;;;;;;;19.22;63.77;99408.61;1472971;79;21051;-72
2022/06/18 07:10:11;;;;;;;6.10;4.45;;;;;;;19.30;63.70;99408.03;1469389;79;81715;-72
2022/06/18 07:12:12;;;;;;;8.48;4.00;;;;;;;19.38;63.53;99402.07;1471958;79;21567;-72
2022/06/18 07:14:13;;;;;;;8.95;3.72;;;;;;;19.47;63.24;99398.69;1470966;79;21062;-72
2022/06/18 07:16:15;;;;;;;3.92;3.40;;;;;;;19.52;63.10;99395.64;1469201;79;80646;-72
2022/06/18 07:18:19;;;;;;;6.17;3.40;;;;;;;19.64;62.98;99400.02;1471094;79;20999;-72
2022/06/18 07:20:22;;;;;;;7.90;4.03;;;;;;;19.72;62.89;99392.73;1474027;79;21005;-72
2022/06/18 07:22:23;;;;;;;8.38;3.40;;;;;;;19.79;62.74;99391.27;1472841;79;81487;-72
2022/06/18 07:24:24;;;;;;;6.42;3.50;;;;;;;19.87;62.53;99393.38;1471492;79;21322;-71
2022/06/18 07:26:25;;;;;;;3.80;2.67;;;;;;;19.96;62.31;99391.77;1473522;79;21677;-71
2022/06/18 07:28:27;;;;;;;3.52;2.75;;;;;;;20.04;62.27;99390.16;1472438;79;81465;-72
2022/06/18 07:30:28;;;;;;;9.80;3.10;;;;;;;20.08;61.91;99394.30;1473959;79;20965;-72
2022/06/18 07:32:28;;;;;;;11.45;2.75;;;;;;;20.13;61.89;99396.62;1474135;79;21050;-72
2022/06/18 07:34:29;;;;;;;8.53;2.92;;;;;;;20.21;61.82;99397.31;1470483;79;80823;-72
2022/06/18 07:36:32;;;;;;;9.03;2.87;;;;;;;20.26;61.58;99395.12;1472973;79;21024;-72
2022/06/18 07:38:34;;;;;;;4.60;2.72;;;;;;;20.34;61.48;99394.47;1473407;79;21011;-72
2022/06/18 07:40:44;;;;;;;6.58;2.92;;;;;;;20.39;61.22;99392.27;1471764;79;80714;-72
2022/06/18 07:42:47;;;;;;;3.55;2.80;;;;;;;20.46;60.95;99398.81;1472061;79;21265;-72
2022/06/18 07:44:48;;;;;;;6.28;2.70;;;;;;;20.52;60.91;99402.80;1472397;79;20991;-72
2022/06/18 07:46:51;;;;;;;13.25;3.02;;;;;;;20.58;60.87;99406.33;1470506;79;81585;-72
2022/06/18 07:48:52;;;;;;;7.03;2.77;;;;;;;20.64;60.43;99406.30;1473335;79;21246;-72
2022/06/18 07:50:53;;;;;;;8.10;3.02;;;;;;;20.71;60.57;99409.73;1473755;79;21599;-72
2022/06/18 07:52:54;;;;;;;9.35;2.52;;;;;;;20.79;60.33;99411.75;1470775;79;81370;-72
2022/06/18 07:54:55;;;;;;;7.75;2.90;;;;;;;20.88;60.17;99413.66;1473131;79;21566;-71
2022/06/18 07:56:56;;;;;;;7.42;2.75;;;;;;;20.91;59.93;99417.41;1471889;79;21116;-71
2022/06/18 07:58:58;;;;;;;7.60;2.70;;;;;;;20.95;59.67;99407.77;1468971;79;81165;-71
2022/06/18 08:00:59;;;;;;;5.00;2.42;;;;;;;21.03;59.64;99414.67;1472589;80;20956;-72
2022/06/18 08:03:00;;;;;;;2.92;2.12;;;;;;;21.14;59.43;99412.42;1478272;79;80901;-71
2022/06/18 08:05:01;;;;;;;8.83;2.80;;;;;;;21.20;59.35;99414.09;1479797;79;22002;-72
2022/06/18 08:07:02;;;;;;;3.12;2.30;;;;;;;21.30;59.15;99413.31;1477721;79;21078;-71
2022/06/18 08:09:03;;;;;;;5.30;2.45;;;;;;;21.38;58.96;99410.82;1478403;79;81511;-71
2022/06/18 08:11:07;;;;;;;2.02;1.82;;;;;;;21.49;58.79;99413.41;1479803;79;21363;-70
2022/06/18 08:13:09;;;;;;;15.03;1.75;;;;;;;21.60;57.98;99415.20;1480455;80;20990;-72
2022/06/18 08:15:10;;;;;;;5.75;2.35;;;;;;;21.70;57.81;99412.55;1478464;79;82291;-72
2022/06/18 08:17:11;;;;;;;3.55;2.05;;;;;;;21.73;57.50;99410.94;1479760;79;21079;-71
2022/06/18 08:19:12;;;;;;;2.35;1.87;;;;;;;21.77;57.19;99410.52;1478811;79;21019;-72
2022/06/18 08:21:19;;;;;;;2.85;1.70;;;;;;;21.92;56.73;99411.01;1478195;78;81966;-71
2022/06/18 08:23:20;;;;;;;7.17;1.85;;;;;;;22.00;56.29;99408.13;1458148;80;21056;-71
2022/06/18 08:25:24;;;;;;;1.95;1.70;;;;;;;22.04;55.85;99408.21;1434630;81;21025;-71
2022/06/18 08:27:25;;;;;;;3.52;2.02;;;;;;;22.08;55.80;99402.92;1455835;80;80712;-72
2022/06/18 08:29:27;;;;;;;4.42;2.10;;;;;;;22.13;55.29;99403.37;1456450;80;20950;-71
2022/06/18 08:31:29;;;;;;;3.12;1.70;;;;;;;22.21;55.34;99402.19;1453764;81;21001;-72
2022/06/18 08:33:30;;;;;;;1.80;1.70;;;;;;;22.26;54.01;99401.29;1455500;80;82121;-72
2022/06/18 08:35:31;;;;;;;3.30;1.60;;;;;;;22.35;54.19;99398.79;1456265;80;21022;-72
2022/06/18 08:37:33;;;;;;;2.17;1.98;;;;;;;22.47;53.77;99385.55;1455794;80;21042;-71
2022/06/18 08:39:36;;;;;;;2.75;2.15;;;;;;;22.56;54.13;99387.91;1429922;81;80659;-71
2022/06/18 08:41:49;;;;;;;8.60;1.85;;;;;;;22.68;54.48;99381.88;1456735;80;21065;-71
2022/06/18 08:44:06;;;;;;;9.18;1.82;;;;;;;22.84;54.16;99378.13;1454301;80;21558;-72
2022/06/18 08:46:13;;;;;;;2.42;1.87;;;;;;;22.98;54.15;99377.34;1455449;80;80566;-71
2022/06/18 08:48:21;;;;;;;7.22;1.92;;;;;;;23.12;53.46;99372.41;1453472;80;21095;-71
2022/06/18 08:50:34;;;;;;;3.22;2.00;;;;;;;23.16;53.42;99372.94;1456324;80;21546;-70
2022/06/18 08:53:00;;;;;;;4.40;2.10;;;;;;;23.25;53.33;99369.39;1455221;80;81498;-71
2022/06/18 08:55:20;;;;;;;4.15;3.27;;;;;;;23.29;53.23;99373.48;1456223;80;21023;-71
2022/06/18 08:57:25;;;;;;;3.12;2.20;;;;;;;23.36;53.32;99368.84;1455060;80;81779;-71
2022/06/18 08:59:38;;;;;;;6.17;2.70;;;;;;;23.53;52.58;99377.50;1432315;81;21018;-71
2022/06/18 09:01:43;;;;;;;5.75;3.45;;;;;;;23.64;52.59;99370.58;1460181;80;21274;-72
2022/06/18 09:03:51;;;;;;;7.67;3.20;;;;;;;23.83;52.59;99366.13;1437783;81;81477;-72
2022/06/18 09:06:16;;;;;;;13.50;5.58;;;;;;;23.95;52.35;99361.39;1457202;79;21039;-72
2022/06/18 09:08:26;;;;;;;33.20;17.27;;;;;;;24.09;52.22;99357.34;1472473;79;21115;-72
2022/06/18 09:11:01;;;;;;;5.97;3.35;;;;;;;24.18;51.96;99361.83;1477560;78;81078;-72
2022/06/18 09:13:06;;;;;;;11.25;2.40;;;;;;;24.18;50.67;99360.48;1475577;79;21522;-70
2022/06/18 09:15:11;;;;;;;2.15;1.95;;;;;;;24.12;50.79;99354.37;1477995;79;81882;-71
2022/06/18 09:17:29;;;;;;;8.98;1.80;;;;;;;24.19;50.90;99353.23;1478589;79;21029;-71
2022/06/18 09:19:32;;;;;;;8.98;3.12;;;;;;;24.23;50.30;99354.14;1409727;83;21098;-71
2022/06/18 09:21:55;;;;;;;3.92;3.33;;;;;;;24.37;50.79;99347.85;1409107;83;80652;-71
2022/06/18 09:24:02;;;;;;;4.72;2.40;;;;;;;24.55;50.76;99350.06;1408213;81;21046;-71
2022/06/18 09:26:07;;;;;;;3.12;1.80;;;;;;;24.63;50.09;99343.43;1407626;83;20998;-71
2022/06/18 09:28:12;;;;;;;3.83;1.30;;;;;;;24.74;50.31;99343.69;1408261;83;81510;-71
2022/06/18 09:30:31;;;;;;;1.72;1.60;;;;;;;24.87;49.93;99340.58;1409296;83;21549;-71
2022/06/18 09:32:48;;;;;;;5.83;1.65;;;;;;;24.97;49.25;99344.01;1409473;83;21080;-70
2022/06/18 09:34:58;;;;;;;4.67;1.52;;;;;;;25.12;49.11;99338.89;1411867;83;81307;-71
2022/06/18 09:37:06;;;;;;;3.47;1.42;;;;;;;25.27;49.12;99335.62;1409495;83;21144;-72
2022/06/18 09:39:20;;;;;;;4.75;1.80;;;;;;;25.48;48.14;99341.48;1407331;81;80725;-71
2022/06/18 09:41:27;;;;;;;4.17;1.62;;;;;;;25.51;48.12;99336.27;1407228;83;21048;-71
2022/06/18 09:43:43;;;;;;;2.37;1.60;;;;;;;25.55;48.27;99335.45;1408133;83;21038;-71
2022/06/18 09:45:54;;;;;;;6.35;1.72;;;;;;;25.58;48.24;99335.12;1408333;83;81697;-71
2022/06/18 09:47:55;;;;;;;5.45;1.60;;;;;;;25.70;48.22;99326.20;1408870;83;21038;-71
2022/06/18 09:49:56;;;;;;;5.75;1.77;;;;;;;25.81;47.42;99322.72;1410678;83;21054;-72
2022/06/18 09:52:08;;;;;;;5.15;1.62;;;;;;;25.83;47.64;99322.55;1428843;81;81257;-71
2022/06/18 09:54:08;;;;;;;8.30;1.70;;;;;;;25.91;47.21;99323.09;1410245;81;21055;-72